Terminal Aerodrome Forecast
Issued by NWS

Home | Current Version | Previous Version | Graphics & Text | Print | Product List | Glossary On
Versions: 1 2 3 4 5 6 7 8 9 10 11 12 13 14 15 16 17
000
FTUS41 KCLE 202339
TAFFDY
TAF
KFDY 202339Z 2100/2124 VRB05KT 6SM BR OVC020
      TEMPO 2100/2103 3SM -SHRA BR OVC012
     FM210400 36005KT P6SM OVC015
      TEMPO 2104/2107 4SM BR
     FM211500 32012KT P6SM SCT035=

USA.gov is the U.S. government's official web portal to all federal, state and local government web resources and services.